Rechercher aéroport 
image banner adimage banner adimage banner ad
image banner ad

9CA4 - Hdmc Holdings Llc

Situé à Joshua Tree, United States

ICAO - 9CA4, IATA -

Données fournies par Airmate  

Information générale

Coordonnées: N34°7'53" W116°16'33"
Élévation : 2652 feet MSL.
Variation magnétique : 14° East
Voir autres Aéroports à California

Données opérationnelles

Special qualification required
Heure actuelle UTC:
Heure actuelle locale:
Météo à : KNXP - Twentynine Palms Self ( 21 km )
METAR: KNXP 292056Z AUTO 32005KT 10SM CLR 40/08 A2995 RMK AO2 SLP099 T04000083 58020
TAF: TAF KNXP 2921/3021 VRB06KT 9999 SKC QNH2990INS BECMG 3000/3002 24012KT 9999 SKC QNH2992INS BECMG 0308/0310 VRB05KT 9999 SKC QNH2995INS FM031830 12010KT 9999 SKC QNH2999INS TEMPO 0319/0321 14010G20KT T41/2923Z T28/3014Z
Voir NOTAMs / SUP AIP / TFR affectant cet aéroport [VIEW]
Fréquences de communication: [VIEW]

Pistes:

Coordonnées de l'aéroport

Adresse: Joshua Tree United States

Vue satellite de 9CA4